SWA1401 KPVD-KMDW
Flight info
| Callsign | SWA1401 |
|---|---|
| Flight time | N/A |
| Altitude | 40000 |
| Route | PUT CTR HNK DJB FWA PANGG5 |
| Aircraft | B737/M-SDE2E3FGHIRWXY/LB1 |
Departure
| Time | N/A |
|---|---|
| Airport | Rhode Island T. F. Green International Airport (KPVD) |
Arrival
| Time | 2026-05-08 00:43 |
|---|---|
| Airport | Chicago Midway International Airport (KMDW) |
| Time | Latitude | Longitude | Altitude | Speed | Heading |
|---|---|---|---|---|---|
| 2026-05-08 00:08 | 41.05857 | -84.60500 | 39989 ft | 385 kts | 262° |
| 2026-05-08 00:08 | 41.05390 | -84.63987 | 39994 ft | 385 kts | 262° |
| 2026-05-08 00:09 | 41.04451 | -84.70976 | 39996 ft | 385 kts | 262° |
| 2026-05-08 00:09 | 41.03508 | -84.77961 | 39993 ft | 385 kts | 262° |
| 2026-05-08 00:10 | 41.02562 | -84.84939 | 39996 ft | 385 kts | 262° |
| 2026-05-08 00:10 | 41.01616 | -84.91882 | 39975 ft | 385 kts | 262° |
| 2026-05-08 00:11 | 41.00657 | -84.98887 | 39981 ft | 384 kts | 262° |
| 2026-05-08 00:11 | 40.99710 | -85.05781 | 39974 ft | 383 kts | 262° |
| 2026-05-08 00:12 | 40.99307 | -85.12774 | 39544 ft | 388 kts | 279° |
| 2026-05-08 00:12 | 41.00040 | -85.16182 | 39111 ft | 385 kts | 289° |
| 2026-05-08 00:12 | 41.01275 | -85.19349 | 38460 ft | 389 kts | 297° |
| 2026-05-08 00:13 | 41.02910 | -85.22215 | 37736 ft | 394 kts | 307° |
| 2026-05-08 00:13 | 41.05041 | -85.24566 | 37086 ft | 404 kts | 317° |
| 2026-05-08 00:13 | 41.07424 | -85.26543 | 36374 ft | 405 kts | 320° |
| 2026-05-08 00:13 | 41.09861 | -85.28426 | 35622 ft | 405 kts | 320° |
| 2026-05-08 00:14 | 41.12312 | -85.30287 | 34822 ft | 405 kts | 320° |
| 2026-05-08 00:14 | 41.14747 | -85.32146 | 34144 ft | 402 kts | 320° |
| 2026-05-08 00:14 | 41.17157 | -85.34008 | 33006 ft | 404 kts | 319° |
| 2026-05-08 00:14 | 41.19573 | -85.35897 | 32297 ft | 398 kts | 319° |
| 2026-05-08 00:15 | 41.21928 | -85.37743 | 31804 ft | 389 kts | 319° |
| 2026-05-08 00:15 | 41.24235 | -85.39560 | 31263 ft | 382 kts | 319° |
| 2026-05-08 00:15 | 41.26496 | -85.41350 | 30761 ft | 376 kts | 319° |
| 2026-05-08 00:15 | 41.28729 | -85.43123 | 30161 ft | 371 kts | 320° |
| 2026-05-08 00:16 | 41.30929 | -85.44870 | 29517 ft | 365 kts | 320° |
| 2026-05-08 00:16 | 41.33082 | -85.46583 | 28939 ft | 358 kts | 320° |
| 2026-05-08 00:16 | 41.35197 | -85.48266 | 28372 ft | 351 kts | 320° |
| 2026-05-08 00:16 | 41.37274 | -85.49921 | 27823 ft | 344 kts | 320° |
| 2026-05-08 00:17 | 41.39310 | -85.51545 | 27287 ft | 339 kts | 320° |
| 2026-05-08 00:17 | 41.41315 | -85.53146 | 26755 ft | 334 kts | 320° |
| 2026-05-08 00:17 | 41.43291 | -85.54724 | 26225 ft | 329 kts | 321° |
| 2026-05-08 00:17 | 41.45249 | -85.56287 | 25690 ft | 327 kts | 321° |
| 2026-05-08 00:18 | 41.47200 | -85.57847 | 25145 ft | 328 kts | 321° |
| 2026-05-08 00:18 | 41.49035 | -85.59606 | 24576 ft | 323 kts | 309° |
| 2026-05-08 00:18 | 41.50365 | -85.61969 | 24049 ft | 326 kts | 298° |
| 2026-05-08 00:18 | 41.51347 | -85.64716 | 23574 ft | 331 kts | 289° |
| 2026-05-08 00:19 | 41.51791 | -85.67780 | 23036 ft | 333 kts | 277° |
| 2026-05-08 00:19 | 41.51902 | -85.70853 | 22547 ft | 331 kts | 274° |
| 2026-05-08 00:19 | 41.51944 | -85.73914 | 22102 ft | 328 kts | 273° |
| 2026-05-08 00:19 | 41.51975 | -85.76945 | 21675 ft | 326 kts | 273° |
| 2026-05-08 00:20 | 41.52012 | -85.79964 | 21225 ft | 325 kts | 273° |
| 2026-05-08 00:20 | 41.52057 | -85.82931 | 20792 ft | 323 kts | 273° |
| 2026-05-08 00:20 | 41.52108 | -85.85925 | 20359 ft | 322 kts | 273° |
| 2026-05-08 00:20 | 41.52162 | -85.88912 | 19930 ft | 322 kts | 273° |
| 2026-05-08 00:21 | 41.52218 | -85.91897 | 19504 ft | 321 kts | 273° |
| 2026-05-08 00:21 | 41.52274 | -85.94872 | 19086 ft | 321 kts | 273° |
| 2026-05-08 00:21 | 41.52330 | -85.97855 | 18660 ft | 321 kts | 272° |
| 2026-05-08 00:21 | 41.52386 | -86.00832 | 18234 ft | 321 kts | 272° |
| 2026-05-08 00:22 | 41.52440 | -86.03807 | 17752 ft | 320 kts | 272° |
| 2026-05-08 00:22 | 41.52492 | -86.06764 | 17295 ft | 316 kts | 272° |
| 2026-05-08 00:22 | 41.52514 | -86.09669 | 16873 ft | 311 kts | 271° |
| 2026-05-08 00:22 | 41.52502 | -86.12532 | 16460 ft | 306 kts | 270° |
| 2026-05-08 00:23 | 41.52483 | -86.15361 | 16048 ft | 304 kts | 270° |
| 2026-05-08 00:23 | 41.52464 | -86.18178 | 15629 ft | 303 kts | 270° |
| 2026-05-08 00:23 | 41.52447 | -86.20984 | 15233 ft | 302 kts | 270° |
| 2026-05-08 00:23 | 41.52431 | -86.23782 | 14839 ft | 301 kts | 271° |
| 2026-05-08 00:24 | 41.52416 | -86.26574 | 14459 ft | 300 kts | 271° |
| 2026-05-08 00:24 | 41.52400 | -86.29347 | 14125 ft | 298 kts | 271° |
| 2026-05-08 00:24 | 41.52386 | -86.32110 | 13736 ft | 298 kts | 271° |
| 2026-05-08 00:24 | 41.52370 | -86.34874 | 13294 ft | 297 kts | 270° |
| 2026-05-08 00:25 | 41.52353 | -86.37628 | 12882 ft | 297 kts | 270° |
| 2026-05-08 00:25 | 41.52336 | -86.40381 | 12476 ft | 296 kts | 270° |
| 2026-05-08 00:25 | 41.52317 | -86.43126 | 12084 ft | 296 kts | 270° |
| 2026-05-08 00:25 | 41.52299 | -86.45866 | 11681 ft | 295 kts | 270° |
| 2026-05-08 00:26 | 41.52280 | -86.48598 | 11289 ft | 292 kts | 270° |
| 2026-05-08 00:26 | 41.52260 | -86.51276 | 10880 ft | 285 kts | 270° |
| 2026-05-08 00:26 | 41.52241 | -86.53887 | 10503 ft | 278 kts | 270° |
| 2026-05-08 00:26 | 41.52221 | -86.56440 | 10137 ft | 272 kts | 270° |
| 2026-05-08 00:27 | 41.52201 | -86.58906 | 10039 ft | 257 kts | 271° |
| 2026-05-08 00:27 | 41.52181 | -86.61218 | 9946 ft | 244 kts | 271° |
| 2026-05-08 00:27 | 41.52162 | -86.63463 | 9661 ft | 239 kts | 271° |
| 2026-05-08 00:27 | 41.52144 | -86.65664 | 9465 ft | 236 kts | 271° |
| 2026-05-08 00:28 | 41.52126 | -86.67855 | 9319 ft | 236 kts | 271° |
| 2026-05-08 00:28 | 41.52107 | -86.70054 | 9160 ft | 238 kts | 271° |
| 2026-05-08 00:28 | 41.52088 | -86.72275 | 9008 ft | 240 kts | 271° |
| 2026-05-08 00:28 | 41.52067 | -86.74512 | 8851 ft | 241 kts | 271° |
| 2026-05-08 00:29 | 41.52047 | -86.76750 | 8697 ft | 241 kts | 271° |
| 2026-05-08 00:29 | 41.52025 | -86.78985 | 8551 ft | 241 kts | 270° |
| 2026-05-08 00:29 | 41.52004 | -86.81229 | 8391 ft | 241 kts | 270° |
| 2026-05-08 00:29 | 41.51982 | -86.83465 | 8237 ft | 241 kts | 270° |
| 2026-05-08 00:30 | 41.51959 | -86.85706 | 8076 ft | 241 kts | 270° |
| 2026-05-08 00:30 | 41.51936 | -86.87931 | 7921 ft | 238 kts | 270° |
| 2026-05-08 00:30 | 41.51913 | -86.90089 | 7776 ft | 234 kts | 270° |
| 2026-05-08 00:30 | 41.51889 | -86.92270 | 7634 ft | 231 kts | 270° |
| 2026-05-08 00:31 | 41.51865 | -86.94417 | 7497 ft | 231 kts | 270° |
| 2026-05-08 00:31 | 41.51841 | -86.96562 | 7344 ft | 231 kts | 270° |
| 2026-05-08 00:31 | 41.51817 | -86.98703 | 7200 ft | 231 kts | 270° |
| 2026-05-08 00:31 | 41.51792 | -87.00819 | 7060 ft | 231 kts | 270° |
| 2026-05-08 00:32 | 41.51767 | -87.02963 | 6920 ft | 231 kts | 270° |
| 2026-05-08 00:32 | 41.51741 | -87.05134 | 6777 ft | 232 kts | 270° |
| 2026-05-08 00:32 | 41.51716 | -87.07258 | 6631 ft | 232 kts | 270° |
| 2026-05-08 00:32 | 41.51689 | -87.09415 | 6495 ft | 233 kts | 270° |
| 2026-05-08 00:33 | 41.51662 | -87.11577 | 6334 ft | 234 kts | 270° |
| 2026-05-08 00:33 | 41.51634 | -87.13752 | 6179 ft | 234 kts | 270° |
| 2026-05-08 00:33 | 41.51673 | -87.15907 | 6059 ft | 231 kts | 280° |
| 2026-05-08 00:33 | 41.52186 | -87.17925 | 6057 ft | 230 kts | 290° |
| 2026-05-08 00:34 | 41.52779 | -87.19916 | 6031 ft | 232 kts | 290° |
| 2026-05-08 00:34 | 41.53377 | -87.21929 | 6033 ft | 236 kts | 290° |
| 2026-05-08 00:34 | 41.53981 | -87.23969 | 6030 ft | 237 kts | 290° |
| 2026-05-08 00:34 | 41.54587 | -87.26017 | 6025 ft | 237 kts | 290° |
| 2026-05-08 00:35 | 41.55192 | -87.28070 | 6011 ft | 238 kts | 290° |
| 2026-05-08 00:35 | 41.55796 | -87.30123 | 6012 ft | 237 kts | 290° |
| 2026-05-08 00:35 | 41.56398 | -87.32172 | 6007 ft | 237 kts | 290° |
| 2026-05-08 00:35 | 41.56998 | -87.34219 | 6000 ft | 237 kts | 290° |
| 2026-05-08 00:36 | 41.57598 | -87.36268 | 6005 ft | 237 kts | 290° |
| 2026-05-08 00:36 | 41.57994 | -87.37620 | 6004 ft | 237 kts | 290° |
| 2026-05-08 00:36 | 41.58597 | -87.39683 | 5882 ft | 241 kts | 290° |
| 2026-05-08 00:36 | 41.59209 | -87.41776 | 5740 ft | 242 kts | 290° |
| 2026-05-08 00:37 | 41.59830 | -87.43863 | 5599 ft | 242 kts | 290° |
| 2026-05-08 00:37 | 41.60451 | -87.45929 | 5466 ft | 236 kts | 290° |
| 2026-05-08 00:37 | 41.61046 | -87.47898 | 5398 ft | 221 kts | 290° |
| 2026-05-08 00:38 | 41.62179 | -87.51623 | 4547 ft | 217 kts | 291° |
| 2026-05-08 00:38 | 41.62962 | -87.53334 | 4127 ft | 217 kts | 313° |
| 2026-05-08 00:38 | 41.63975 | -87.54640 | 4057 ft | 201 kts | 310° |
| 2026-05-08 00:38 | 41.64917 | -87.55989 | 4022 ft | 196 kts | 310° |
| 2026-05-08 00:39 | 41.65847 | -87.57324 | 4002 ft | 198 kts | 310° |
| 2026-05-08 00:39 | 41.66801 | -87.58679 | 3834 ft | 202 kts | 310° |
| 2026-05-08 00:39 | 41.67769 | -87.60045 | 3564 ft | 200 kts | 310° |
| 2026-05-08 00:39 | 41.68700 | -87.61357 | 3298 ft | 188 kts | 310° |
| 2026-05-08 00:40 | 41.69574 | -87.62590 | 3040 ft | 177 kts | 310° |
| 2026-05-08 00:40 | 41.70426 | -87.63795 | 2810 ft | 179 kts | 310° |
| 2026-05-08 00:40 | 41.71280 | -87.65000 | 2563 ft | 177 kts | 310° |
| 2026-05-08 00:40 | 41.72120 | -87.66185 | 2330 ft | 175 kts | 310° |
| 2026-05-08 00:41 | 41.72931 | -87.67329 | 2088 ft | 163 kts | 310° |
| 2026-05-08 00:41 | 41.73686 | -87.68394 | 1906 ft | 153 kts | 310° |
| 2026-05-08 00:41 | 41.74406 | -87.69409 | 1694 ft | 143 kts | 310° |
| 2026-05-08 00:41 | 41.75065 | -87.70339 | 1472 ft | 133 kts | 310° |
| 2026-05-08 00:42 | 41.75709 | -87.71246 | 1292 ft | 136 kts | 310° |
| 2026-05-08 00:42 | 41.76366 | -87.72173 | 1159 ft | 141 kts | 311° |
| 2026-05-08 00:42 | 41.77056 | -87.73151 | 949 ft | 148 kts | 312° |
| 2026-05-08 00:42 | 41.77763 | -87.74141 | 734 ft | 147 kts | 312° |
| 2026-05-08 00:43 | 41.78448 | -87.75108 | 629 ft | 121 kts | 313° |
| 2026-05-08 00:43 | 41.78784 | -87.75580 | 627 ft | 30 kts | 313° |
| 2026-05-08 00:43 | 41.78916 | -87.75737 | 637 ft | 23 kts | 327° |
| 2026-05-08 00:43 | 41.79047 | -87.75814 | 633 ft | 17 kts | 345° |
| 2026-05-08 00:44 | 41.79126 | -87.75755 | 628 ft | 15 kts | 88° |
| 2026-05-08 00:44 | 41.79100 | -87.75626 | 628 ft | 15 kts | 133° |
| 2026-05-08 00:44 | 41.79024 | -87.75521 | 635 ft | 17 kts | 134° |
| 2026-05-08 00:44 | 41.78945 | -87.75410 | 628 ft | 16 kts | 133° |
| 2026-05-08 00:45 | 41.78899 | -87.75345 | 628 ft | 2 kts | 133° |
| 2026-05-08 00:45 | 41.78898 | -87.75343 | 628 ft | 0 kts | 133° |
| 2026-05-08 00:46 | 41.78897 | -87.75342 | 628 ft | 1 kts | 133° |
| 2026-05-08 00:46 | 41.78848 | -87.75272 | 626 ft | 15 kts | 133° |
| 2026-05-08 00:46 | 41.78779 | -87.75174 | 627 ft | 14 kts | 133° |
| 2026-05-08 00:46 | 41.78712 | -87.75080 | 627 ft | 14 kts | 133° |
| 2026-05-08 00:47 | 41.78649 | -87.74990 | 627 ft | 13 kts | 134° |
| 2026-05-08 00:47 | 41.78592 | -87.74907 | 636 ft | 10 kts | 114° |
| 2026-05-08 00:47 | 41.78625 | -87.74832 | 631 ft | 11 kts | 44° |
| 2026-05-08 00:47 | 41.78695 | -87.74781 | 628 ft | 12 kts | 27° |
| 2026-05-08 00:48 | 41.78754 | -87.74712 | 630 ft | 11 kts | 44° |
| 2026-05-08 00:48 | 41.78811 | -87.74641 | 632 ft | 11 kts | 43° |
| 2026-05-08 00:48 | 41.78865 | -87.74573 | 628 ft | 11 kts | 43° |
| 2026-05-08 00:48 | 41.78915 | -87.74509 | 630 ft | 8 kts | 50° |
| 2026-05-08 00:49 | 41.78906 | -87.74446 | 630 ft | 7 kts | 125° |
| 2026-05-08 00:49 | 41.78879 | -87.74413 | 628 ft | 4 kts | 142° |
| 2026-05-08 00:49 | 41.78867 | -87.74401 | 633 ft | 1 kts | 142° |
| 2026-05-08 00:49 | 41.78866 | -87.74399 | 633 ft | 0 kts | 142° |